sensor_id;sensor_type;location;lat;lon;timestamp;pressure;altitude;pressure_sealevel;temperature;humidity
52137;BME280;69622;49.570;10.986;2023-05-12T00:01:13;98175.84;;;10.73;100.00
52137;BME280;69622;49.570;10.986;2023-05-12T00:04:14;98169.91;;;10.71;100.00
52137;BME280;69622;49.570;10.986;2023-05-12T00:07:16;98177.81;;;10.70;100.00
52137;BME280;69622;49.570;10.986;2023-05-12T00:10:17;98168.13;;;10.72;100.00
52137;BME280;69622;49.570;10.986;2023-05-12T00:13:19;98170.28;;;10.67;100.00
52137;BME280;69622;49.570;10.986;2023-05-12T00:16:23;98163.88;;;10.71;100.00
52137;BME280;69622;49.570;10.986;2023-05-12T00:19:25;98167.09;;;10.63;100.00
52137;BME280;69622;49.570;10.986;2023-05-12T00:22:26;98165.31;;;10.64;100.00
52137;BME280;69622;49.570;10.986;2023-05-12T00:25:28;98166.38;;;10.61;100.00
52137;BME280;69622;49.570;10.986;2023-05-12T00:28:29;98164.50;;;10.63;100.00
52137;BME280;69622;49.570;10.986;2023-05-12T00:31:31;98161.19;;;10.61;100.00
52137;BME280;69622;49.570;10.986;2023-05-12T00:34:33;98169.56;;;10.65;100.00
52137;BME280;69622;49.570;10.986;2023-05-12T00:37:34;98167.91;;;10.64;100.00
52137;BME280;69622;49.570;10.986;2023-05-12T00:40:36;98162.72;;;10.64;100.00
52137;BME280;69622;49.570;10.986;2023-05-12T00:43:37;98159.41;;;10.62;100.00
52137;BME280;69622;49.570;10.986;2023-05-12T00:46:39;98160.25;;;10.62;100.00
52137;BME280;69622;49.570;10.986;2023-05-12T00:49:40;98158.72;;;10.60;100.00
52137;BME280;69622;49.570;10.986;2023-05-12T00:52:42;98162.00;;;10.62;100.00
52137;BME280;69622;49.570;10.986;2023-05-12T00:55:44;98162.00;;;10.62;100.00
52137;BME280;69622;49.570;10.986;2023-05-12T00:58:46;98167.91;;;10.64;100.00
52137;BME280;69622;49.570;10.986;2023-05-12T01:01:48;98166.28;;;10.63;100.00
52137;BME280;69622;49.570;10.986;2023-05-12T01:04:50;98154.34;;;10.60;100.00
52137;BME280;69622;49.570;10.986;2023-05-12T01:07:51;98158.34;;;10.64;100.00
52137;BME280;69622;49.570;10.986;2023-05-12T01:10:53;98157.66;;;10.62;100.00
52137;BME280;69622;49.570;10.986;2023-05-12T01:13:54;98155.75;;;10.64;100.00
52137;BME280;69622;49.570;10.986;2023-05-12T01:16:59;98151.75;;;10.60;100.00
52137;BME280;69622;49.570;10.986;2023-05-12T01:20:03;98157.16;;;10.57;100.00
52137;BME280;69622;49.570;10.986;2023-05-12T01:23:06;98146.88;;;10.56;100.00
52137;BME280;69622;49.570;10.986;2023-05-12T01:26:08;98144.06;;;10.59;100.00
52137;BME280;69622;49.570;10.986;2023-05-12T01:29:10;98142.63;;;10.55;100.00
52137;BME280;69622;49.570;10.986;2023-05-12T01:32:14;98145.94;;;10.57;100.00
52137;BME280;69622;49.570;10.986;2023-05-12T01:35:16;98141.34;;;10.60;100.00
52137;BME280;69622;49.570;10.986;2023-05-12T01:38:17;98145.00;;;10.58;100.00
52137;BME280;69622;49.570;10.986;2023-05-12T01:41:18;98146.16;;;10.65;100.00
52137;BME280;69622;49.570;10.986;2023-05-12T01:44:21;98145.72;;;10.60;100.00
52137;BME280;69622;49.570;10.986;2023-05-12T01:47:22;98145.72;;;10.60;100.00
52137;BME280;69622;49.570;10.986;2023-05-12T01:50:24;98141.34;;;10.60;100.00
52137;BME280;69622;49.570;10.986;2023-05-12T01:53:25;98142.16;;;10.61;100.00
52137;BME280;69622;49.570;10.986;2023-05-12T01:56:26;98144.88;;;10.59;100.00
52137;BME280;69622;49.570;10.986;2023-05-12T01:59:29;98141.34;;;10.60;100.00
52137;BME280;69622;49.570;10.986;2023-05-12T02:02:30;98143.81;;;10.62;100.00
52137;BME280;69622;49.570;10.986;2023-05-12T02:05:34;98139.81;;;10.58;100.00
52137;BME280;69622;49.570;10.986;2023-05-12T02:08:35;98150.31;;;10.56;100.00
52137;BME280;69622;49.570;10.986;2023-05-12T02:11:37;98145.94;;;10.57;100.00
52137;BME280;69622;49.570;10.986;2023-05-12T02:14:38;98142.28;;;10.59;100.00
52137;BME280;69622;49.570;10.986;2023-05-12T02:17:39;98146.53;;;10.60;100.00
52137;BME280;69622;49.570;10.986;2023-05-12T02:20:41;98143.94;;;10.60;100.00
52137;BME280;69622;49.570;10.986;2023-05-12T02:23:42;98145.72;;;10.60;100.00
52137;BME280;69622;49.570;10.986;2023-05-12T02:26:44;98147.50;;;10.59;100.00
52137;BME280;69622;49.570;10.986;2023-05-12T02:29:45;98149.34;;;10.57;100.00
52137;BME280;69622;49.570;10.986;2023-05-12T02:32:46;98146.66;;;10.59;100.00
52137;BME280;69622;49.570;10.986;2023-05-12T02:35:48;98138.63;;;10.62;100.00
52137;BME280;69622;49.570;10.986;2023-05-12T02:38:49;98147.25;;;10.62;100.00
52137;BME280;69622;49.570;10.986;2023-05-12T02:41:51;98142.16;;;10.61;100.00
52137;BME280;69622;49.570;10.986;2023-05-12T02:44:52;98136.00;;;10.62;100.00
52137;BME280;69622;49.570;10.986;2023-05-12T02:47:54;98143.81;;;10.62;100.00
52137;BME280;69622;49.570;10.986;2023-05-12T02:50:55;98130.00;;;10.61;100.00
52137;BME280;69622;49.570;10.986;2023-05-12T02:53:57;98140.16;;;10.64;100.00
52137;BME280;69622;49.570;10.986;2023-05-12T02:57:03;98134.25;;;10.62;100.00
52137;BME280;69622;49.570;10.986;2023-05-12T03:00:05;98132.47;;;10.63;100.00
52137;BME280;69622;49.570;10.986;2023-05-12T03:03:07;98133.28;;;10.63;100.00
52137;BME280;69622;49.570;10.986;2023-05-12T03:06:08;98124.66;;;10.63;100.00
52137;BME280;69622;49.570;10.986;2023-05-12T03:09:10;98127.16;;;10.64;100.00
52137;BME280;69622;49.570;10.986;2023-05-12T03:12:11;98121.13;;;10.64;100.00
52137;BME280;69622;49.570;10.986;2023-05-12T03:15:13;98125.97;;;10.57;100.00
52137;BME280;69622;49.570;10.986;2023-05-12T03:18:14;98124.22;;;10.58;100.00
52137;BME280;69622;49.570;10.986;2023-05-12T03:21:15;98128.47;;;10.59;100.00
52137;BME280;69622;49.570;10.986;2023-05-12T03:24:17;98123.47;;;10.56;100.00
52137;BME280;69622;49.570;10.986;2023-05-12T03:27:18;98123.34;;;10.57;100.00
52137;BME280;69622;49.570;10.986;2023-05-12T03:30:20;98124.31;;;10.56;100.00
52137;BME280;69622;49.570;10.986;2023-05-12T03:33:21;98124.22;;;10.58;100.00
52137;BME280;69622;49.570;10.986;2023-05-12T03:36:23;98127.72;;;10.57;100.00
52137;BME280;69622;49.570;10.986;2023-05-12T03:39:24;98133.06;;;10.55;100.00
52137;BME280;69622;49.570;10.986;2023-05-12T03:42:26;98125.38;;;10.54;100.00
52137;BME280;69622;49.570;10.986;2023-05-12T03:45:27;98127.16;;;10.53;100.00
52137;BME280;69622;49.570;10.986;2023-05-12T03:48:28;98126.44;;;10.51;100.00
52137;BME280;69622;49.570;10.986;2023-05-12T03:51:30;98121.00;;;10.54;100.00
52137;BME280;69622;49.570;10.986;2023-05-12T03:54:31;98117.69;;;10.52;100.00
52137;BME280;69622;49.570;10.986;2023-05-12T03:57:33;98128.34;;;10.49;100.00
52137;BME280;69622;49.570;10.986;2023-05-12T04:00:36;98123.16;;;10.49;100.00
52137;BME280;69622;49.570;10.986;2023-05-12T04:03:39;98118.66;;;10.51;100.00
52137;BME280;69622;49.570;10.986;2023-05-12T04:06:42;98115.34;;;10.49;100.00
52137;BME280;69622;49.570;10.986;2023-05-12T04:09:43;98120.41;;;10.50;100.00
52137;BME280;69622;49.570;10.986;2023-05-12T04:12:44;98130.59;;;10.42;100.00
52137;BME280;69622;49.570;10.986;2023-05-12T04:15:46;98124.47;;;10.43;100.00
52137;BME280;69622;49.570;10.986;2023-05-12T04:18:48;98126.00;;;10.46;100.00
52137;BME280;69622;49.570;10.986;2023-05-12T04:21:49;98130.38;;;10.45;100.00
52137;BME280;69622;49.570;10.986;2023-05-12T04:24:51;98131.56;;;10.41;100.00
52137;BME280;69622;49.570;10.986;2023-05-12T04:27:52;98139.44;;;10.51;100.00
52137;BME280;69622;49.570;10.986;2023-05-12T04:30:53;98140.88;;;10.44;100.00
52137;BME280;69622;49.570;10.986;2023-05-12T04:33:55;98148.81;;;10.42;100.00
52137;BME280;69622;49.570;10.986;2023-05-12T04:36:56;98139.56;;;10.38;100.00
52137;BME280;69622;49.570;10.986;2023-05-12T04:39:58;98142.88;;;10.40;100.00
52137;BME280;69622;49.570;10.986;2023-05-12T04:42:59;98140.19;;;10.42;100.00
52137;BME280;69622;49.570;10.986;2023-05-12T04:46:01;98151.41;;;10.42;100.00
52137;BME280;69622;49.570;10.986;2023-05-12T04:49:02;98153.38;;;10.39;100.00
52137;BME280;69622;49.570;10.986;2023-05-12T04:52:04;98143.59;;;10.42;100.00
52137;BME280;69622;49.570;10.986;2023-05-12T04:55:06;98150.66;;;10.40;100.00
52137;BME280;69622;49.570;10.986;2023-05-12T04:58:08;98146.91;;;10.44;100.00
52137;BME280;69622;49.570;10.986;2023-05-12T05:01:09;98155.03;;;10.40;100.00
52137;BME280;69622;49.570;10.986;2023-05-12T05:04:12;98150.44;;;10.43;100.00
52137;BME280;69622;49.570;10.986;2023-05-12T05:07:13;98149.63;;;10.43;100.00
52137;BME280;69622;49.570;10.986;2023-05-12T05:10:15;98153.84;;;10.55;100.00
52137;BME280;69622;49.570;10.986;2023-05-12T05:13:16;98149.38;;;10.46;100.00
52137;BME280;69622;49.570;10.986;2023-05-12T05:16:18;98152.81;;;10.58;100.00
52137;BME280;69622;49.570;10.986;2023-05-12T05:19:19;98144.66;;;10.51;100.00
52137;BME280;69622;49.570;10.986;2023-05-12T05:22:41;98149.59;;;10.54;100.00
52137;BME280;69622;49.570;10.986;2023-05-12T05:25:42;98141.81;;;10.54;100.00
52137;BME280;69622;49.570;10.986;2023-05-12T05:28:44;98148.66;;;10.55;100.00
52137;BME280;69622;49.570;10.986;2023-05-12T05:31:45;98151.94;;;10.57;100.00
52137;BME280;69622;49.570;10.986;2023-05-12T05:34:47;98150.09;;;10.59;100.00
52137;BME280;69622;49.570;10.986;2023-05-12T05:37:48;98160.50;;;10.59;100.00
52137;BME280;69622;49.570;10.986;2023-05-12T05:40:53;98163.19;;;10.69;100.00
52137;BME280;69622;49.570;10.986;2023-05-12T05:43:55;98165.91;;;10.67;100.00
52137;BME280;69622;49.570;10.986;2023-05-12T05:46:56;98164.94;;;10.68;100.00
52137;BME280;69622;49.570;10.986;2023-05-12T05:49:58;98166.59;;;10.80;100.00
52137;BME280;69622;49.570;10.986;2023-05-12T05:52:59;98171.44;;;10.85;100.00
52137;BME280;69622;49.570;10.986;2023-05-12T05:56:01;98171.56;;;10.84;100.00
52137;BME280;69622;49.570;10.986;2023-05-12T05:59:02;98165.88;;;10.90;100.00
52137;BME280;69622;49.570;10.986;2023-05-12T06:02:05;98170.00;;;10.92;100.00
52137;BME280;69622;49.570;10.986;2023-05-12T06:05:07;98174.59;;;11.00;100.00
52137;BME280;69622;49.570;10.986;2023-05-12T06:08:08;98167.41;;;10.92;100.00
52137;BME280;69622;49.570;10.986;2023-05-12T06:11:13;98178.50;;;11.05;100.00
52137;BME280;69622;49.570;10.986;2023-05-12T06:14:17;98185.25;;;10.97;100.00
52137;BME280;69622;49.570;10.986;2023-05-12T06:17:18;98191.16;;;10.99;100.00
52137;BME280;69622;49.570;10.986;2023-05-12T06:20:20;98193.53;;;10.91;100.00
52137;BME280;69622;49.570;10.986;2023-05-12T06:23:23;98188.69;;;10.97;100.00
52137;BME280;69622;49.570;10.986;2023-05-12T06:26:25;98197.56;;;10.95;100.00
52137;BME280;69622;49.570;10.986;2023-05-12T06:29:26;98197.69;;;10.93;100.00
52137;BME280;69622;49.570;10.986;2023-05-12T06:32:27;98193.50;;;11.02;100.00
52137;BME280;69622;49.570;10.986;2023-05-12T06:35:29;98195.38;;;11.11;100.00
52137;BME280;69622;49.570;10.986;2023-05-12T06:38:30;98207.00;;;11.07;100.00
52137;BME280;69622;49.570;10.986;2023-05-12T06:41:32;98196.22;;;11.12;100.00
52137;BME280;69622;49.570;10.986;2023-05-12T06:44:33;98195.00;;;11.16;100.00
52137;BME280;69622;49.570;10.986;2023-05-12T06:47:35;98195.72;;;11.18;100.00
52137;BME280;69622;49.570;10.986;2023-05-12T06:50:36;98209.03;;;11.35;100.00
52137;BME280;69622;49.570;10.986;2023-05-12T06:53:39;98210.16;;;11.22;100.00
52137;BME280;69622;49.570;10.986;2023-05-12T06:56:41;98198.88;;;11.32;100.00
52137;BME280;69622;49.570;10.986;2023-05-12T06:59:43;98199.97;;;11.19;100.00
52137;BME280;69622;49.570;10.986;2023-05-12T07:02:44;98197.47;;;11.28;100.00
52137;BME280;69622;49.570;10.986;2023-05-12T07:05:45;98205.50;;;11.36;100.00
52137;BME280;69622;49.570;10.986;2023-05-12T07:08:47;98205.81;;;11.43;100.00
52137;BME280;69622;49.570;10.986;2023-05-12T07:11:49;98216.50;;;11.40;100.00
52137;BME280;69622;49.570;10.986;2023-05-12T07:14:51;98213.06;;;11.39;100.00
52137;BME280;69622;49.570;10.986;2023-05-12T07:17:52;98207.09;;;11.49;100.00
52137;BME280;69622;49.570;10.986;2023-05-12T07:20:55;98212.19;;;11.50;100.00
52137;BME280;69622;49.570;10.986;2023-05-12T07:23:57;98212.78;;;11.54;100.00
52137;BME280;69622;49.570;10.986;2023-05-12T07:26:59;98209.41;;;11.63;100.00
52137;BME280;69622;49.570;10.986;2023-05-12T07:30:01;98218.56;;;11.57;100.00
52137;BME280;69622;49.570;10.986;2023-05-12T07:33:02;98215.81;;;11.59;100.00
52137;BME280;69622;49.570;10.986;2023-05-12T07:36:05;98213.75;;;11.74;100.00
52137;BME280;69622;49.570;10.986;2023-05-12T07:39:06;98221.09;;;11.80;100.00
52137;BME280;69622;49.570;10.986;2023-05-12T07:42:08;98215.13;;;11.89;100.00
52137;BME280;69622;49.570;10.986;2023-05-12T07:45:09;98221.28;;;11.88;100.00
52137;BME280;69622;49.570;10.986;2023-05-12T07:48:11;98226.94;;;11.93;100.00
52137;BME280;69622;49.570;10.986;2023-05-12T07:51:13;98227.03;;;12.03;100.00
52137;BME280;69622;49.570;10.986;2023-05-12T07:54:14;98226.63;;;12.07;100.00
52137;BME280;69622;49.570;10.986;2023-05-12T07:57:16;98227.59;;;12.06;100.00
52137;BME280;69622;49.570;10.986;2023-05-12T08:00:17;98224.59;;;12.11;100.00
52137;BME280;69622;49.570;10.986;2023-05-12T08:03:19;98225.50;;;12.21;100.00
52137;BME280;69622;49.570;10.986;2023-05-12T08:06:21;98231.41;;;12.02;100.00
52137;BME280;69622;49.570;10.986;2023-05-12T08:09:22;98226.63;;;12.07;100.00
52137;BME280;69622;49.570;10.986;2023-05-12T08:12:23;98236.53;;;12.13;100.00
52137;BME280;69622;49.570;10.986;2023-05-12T08:15:25;98231.28;;;12.04;100.00
52137;BME280;69622;49.570;10.986;2023-05-12T08:18:27;98230.91;;;12.08;100.00
52137;BME280;69622;49.570;10.986;2023-05-12T08:21:28;98237.19;;;12.06;100.00
52137;BME280;69622;49.570;10.986;2023-05-12T08:24:30;98239.16;;;12.13;100.00
52137;BME280;69622;49.570;10.986;2023-05-12T08:27:31;98243.50;;;12.03;100.00
52137;BME280;69622;49.570;10.986;2023-05-12T08:30:32;98245.44;;;12.11;100.00
52137;BME280;69622;49.570;10.986;2023-05-12T08:33:35;98245.94;;;12.25;100.00
52137;BME280;69622;49.570;10.986;2023-05-12T08:36:38;98252.25;;;12.23;100.00
52137;BME280;69622;49.570;10.986;2023-05-12T08:39:39;98251.38;;;12.34;100.00
52137;BME280;69622;49.570;10.986;2023-05-12T08:42:41;98241.97;;;12.21;100.00
52137;BME280;69622;49.570;10.986;2023-05-12T08:45:44;98249.50;;;12.45;100.00
52137;BME280;69622;49.570;10.986;2023-05-12T08:48:46;98255.25;;;12.18;100.00
52137;BME280;69622;49.570;10.986;2023-05-12T08:51:52;98253.19;;;12.43;100.00
52137;BME280;69622;49.570;10.986;2023-05-12T08:54:59;98251.13;;;12.46;100.00
52137;BME280;69622;49.570;10.986;2023-05-12T08:58:02;98256.63;;;12.43;100.00
52137;BME280;69622;49.570;10.986;2023-05-12T09:01:05;98255.47;;;12.57;100.00
52137;BME280;69622;49.570;10.986;2023-05-12T09:04:07;98257.72;;;12.41;100.00
52137;BME280;69622;49.570;10.986;2023-05-12T09:07:09;98254.50;;;12.58;100.00
52137;BME280;69622;49.570;10.986;2023-05-12T09:10:14;98254.47;;;12.79;100.00
52137;BME280;69622;49.570;10.986;2023-05-12T09:14:01;98259.44;;;12.92;100.00
52137;BME280;69622;49.570;10.986;2023-05-12T09:17:03;98263.00;;;12.81;100.00
52137;BME280;69622;49.570;10.986;2023-05-12T09:20:05;98270.81;;;12.81;100.00
52137;BME280;69622;49.570;10.986;2023-05-12T09:23:17;98264.31;;;12.75;100.00
52137;BME280;69622;49.570;10.986;2023-05-12T09:26:20;98267.22;;;12.72;100.00
52137;BME280;69622;49.570;10.986;2023-05-12T09:29:22;98267.28;;;12.61;100.00
52137;BME280;69622;49.570;10.986;2023-05-12T09:32:33;98271.06;;;12.78;100.00
52137;BME280;69622;49.570;10.986;2023-05-12T09:35:39;98274.06;;;12.73;100.00
52137;BME280;69622;49.570;10.986;2023-05-12T09:38:41;98274.47;;;12.69;100.00
52137;BME280;69622;49.570;10.986;2023-05-12T09:41:43;98271.13;;;12.87;100.00
52137;BME280;69622;49.570;10.986;2023-05-12T09:44:44;98272.13;;;12.96;100.00
52137;BME280;69622;49.570;10.986;2023-05-12T09:47:47;98266.38;;;13.02;100.00
52137;BME280;69622;49.570;10.986;2023-05-12T09:50:50;98264.34;;;13.15;100.00
52137;BME280;69622;49.570;10.986;2023-05-12T09:53:52;98260.25;;;13.23;100.00
52137;BME280;69622;49.570;10.986;2023-05-12T09:56:57;98267.44;;;13.30;100.00
52137;BME280;69622;49.570;10.986;2023-05-12T09:59:59;98260.31;;;13.32;100.00
52137;BME280;69622;49.570;10.986;2023-05-12T10:03:03;98262.81;;;13.43;100.00
52137;BME280;69622;49.570;10.986;2023-05-12T10:06:10;98259.63;;;13.30;100.00
52137;BME280;69622;49.570;10.986;2023-05-12T10:09:23;98261.13;;;13.33;100.00
52137;BME280;69622;49.570;10.986;2023-05-12T10:12:25;98267.47;;;13.49;100.00
52137;BME280;69622;49.570;10.986;2023-05-12T10:15:27;98260.03;;;13.35;100.00
52137;BME280;69622;49.570;10.986;2023-05-12T10:18:30;98261.72;;;13.46;100.00
52137;BME280;69622;49.570;10.986;2023-05-12T10:21:32;98255.78;;;13.44;100.00
52137;BME280;69622;49.570;10.986;2023-05-12T10:24:33;98265.56;;;13.52;100.00
52137;BME280;69622;49.570;10.986;2023-05-12T10:27:35;98262.13;;;13.61;100.00
52137;BME280;69622;49.570;10.986;2023-05-12T10:30:38;98267.19;;;13.53;100.00
52137;BME280;69622;49.570;10.986;2023-05-12T10:33:40;98263.34;;;13.57;100.00
52137;BME280;69622;49.570;10.986;2023-05-12T10:36:46;98269.97;;;13.41;100.00
52137;BME280;69622;49.570;10.986;2023-05-12T10:39:51;98267.59;;;13.38;100.00
52137;BME280;69622;49.570;10.986;2023-05-12T10:42:57;98270.06;;;13.40;100.00
52137;BME280;69622;49.570;10.986;2023-05-12T10:46:09;98271.56;;;13.33;100.00
52137;BME280;69622;49.570;10.986;2023-05-12T10:49:10;98266.47;;;13.31;100.00
52137;BME280;69622;49.570;10.986;2023-05-12T10:52:18;98268.91;;;13.23;100.00
52137;BME280;69622;49.570;10.986;2023-05-12T10:55:30;98272.13;;;13.36;100.00
52137;BME280;69622;49.570;10.986;2023-05-12T10:58:32;98281.59;;;13.28;100.00
52137;BME280;69622;49.570;10.986;2023-05-12T11:01:35;98280.22;;;13.33;100.00
52137;BME280;69622;49.570;10.986;2023-05-12T11:04:49;98277.91;;;13.40;100.00
52137;BME280;69622;49.570;10.986;2023-05-12T11:07:51;98287.88;;;13.25;100.00
52137;BME280;69622;49.570;10.986;2023-05-12T11:10:53;98284.44;;;13.25;100.00
52137;BME280;69622;49.570;10.986;2023-05-12T11:13:54;98282.38;;;13.18;100.00
52137;BME280;69622;49.570;10.986;2023-05-12T11:16:56;98280.31;;;13.22;100.00
52137;BME280;69622;49.570;10.986;2023-05-12T11:19:57;98283.53;;;13.35;100.00
52137;BME280;69622;49.570;10.986;2023-05-12T11:23:00;98281.91;;;13.44;100.00
52137;BME280;69622;49.570;10.986;2023-05-12T11:26:03;98279.97;;;13.36;100.00
52137;BME280;69622;49.570;10.986;2023-05-12T11:29:07;98285.22;;;13.46;100.00
52137;BME280;69622;49.570;10.986;2023-05-12T11:32:09;98282.59;;;13.56;100.00
52137;BME280;69622;49.570;10.986;2023-05-12T11:35:13;98278.78;;;13.69;100.00
52137;BME280;69622;49.570;10.986;2023-05-12T11:38:16;98286.47;;;13.61;100.00
52137;BME280;69622;49.570;10.986;2023-05-12T11:41:24;98283.03;;;13.61;100.00
52137;BME280;69622;49.570;10.986;2023-05-12T11:44:26;98288.13;;;13.82;100.00
52137;BME280;69622;49.570;10.986;2023-05-12T11:47:27;98291.72;;;13.90;100.00
52137;BME280;69622;49.570;10.986;2023-05-12T11:50:29;98284.84;;;13.79;100.00
52137;BME280;69622;49.570;10.986;2023-05-12T11:53:30;98282.38;;;13.78;100.00
52137;BME280;69622;49.570;10.986;2023-05-12T11:56:33;98292.91;;;13.47;100.00
52137;BME280;69622;49.570;10.986;2023-05-12T11:59:34;98287.72;;;13.76;100.00
52137;BME280;69622;49.570;10.986;2023-05-12T12:02:36;98293.91;;;13.85;100.00
52137;BME280;69622;49.570;10.986;2023-05-12T12:05:41;98283.03;;;13.70;100.00
52137;BME280;69622;49.570;10.986;2023-05-12T12:08:58;98294.88;;;13.74;100.00
52137;BME280;69622;49.570;10.986;2023-05-12T12:12:04;98304.06;;;13.69;100.00
52137;BME280;69622;49.570;10.986;2023-05-12T12:15:07;98307.09;;;13.64;100.00
52137;BME280;69622;49.570;10.986;2023-05-12T12:18:08;98301.34;;;13.80;100.00
52137;BME280;69622;49.570;10.986;2023-05-12T12:21:10;98303.13;;;13.79;100.00
52137;BME280;69622;49.570;10.986;2023-05-12T12:24:12;98311.91;;;13.59;100.00
52137;BME280;69622;49.570;10.986;2023-05-12T12:27:13;98308.09;;;13.83;100.00
52137;BME280;69622;49.570;10.986;2023-05-12T12:30:15;98308.09;;;13.83;100.00
52137;BME280;69622;49.570;10.986;2023-05-12T12:33:17;98318.94;;;13.78;100.00
52137;BME280;69622;49.570;10.986;2023-05-12T12:36:20;98317.72;;;13.82;100.00
52137;BME280;69622;49.570;10.986;2023-05-12T12:39:22;98321.16;;;13.73;100.00
52137;BME280;69622;49.570;10.986;2023-05-12T12:42:23;98317.13;;;13.69;100.00
52137;BME280;69622;49.570;10.986;2023-05-12T12:45:25;98315.38;;;13.79;100.00
52137;BME280;69622;49.570;10.986;2023-05-12T12:48:27;98317.44;;;13.75;100.00
52137;BME280;69622;49.570;10.986;2023-05-12T12:51:30;98320.75;;;13.77;100.00
52137;BME280;69622;49.570;10.986;2023-05-12T12:54:45;98321.00;;;13.65;100.00
52137;BME280;69622;49.570;10.986;2023-05-12T12:57:46;98320.03;;;13.66;100.00
52137;BME280;69622;49.570;10.986;2023-05-12T13:00:48;98324.56;;;13.64;100.00
52137;BME280;69622;49.570;10.986;2023-05-12T13:03:50;98317.97;;;13.69;100.00
52137;BME280;69622;49.570;10.986;2023-05-12T13:06:51;98324.69;;;13.72;100.00
52137;BME280;69622;49.570;10.986;2023-05-12T13:09:53;98322.09;;;13.62;100.00
52137;BME280;69622;49.570;10.986;2023-05-12T13:12:54;98320.28;;;13.53;100.00
52137;BME280;69622;49.570;10.986;2023-05-12T13:15:56;98321.50;;;13.49;100.00
52137;BME280;69622;49.570;10.986;2023-05-12T13:18:57;98321.53;;;13.59;100.00
52137;BME280;69622;49.570;10.986;2023-05-12T13:21:59;98322.06;;;13.53;100.00
52137;BME280;69622;49.570;10.986;2023-05-12T13:25:00;98323.28;;;13.48;100.00
52137;BME280;69622;49.570;10.986;2023-05-12T13:28:02;98325.63;;;13.52;100.00
52137;BME280;69622;49.570;10.986;2023-05-12T13:31:04;98328.13;;;13.63;100.00
52137;BME280;69622;49.570;10.986;2023-05-12T13:34:06;98326.50;;;13.62;100.00
52137;BME280;69622;49.570;10.986;2023-05-12T13:37:07;98329.50;;;13.67;100.00
52137;BME280;69622;49.570;10.986;2023-05-12T13:40:09;98323.88;;;13.62;100.00
52137;BME280;69622;49.570;10.986;2023-05-12T13:43:10;98325.13;;;13.67;100.00
52137;BME280;69622;49.570;10.986;2023-05-12T13:46:12;98322.22;;;13.61;100.00
52137;BME280;69622;49.570;10.986;2023-05-12T13:49:14;98329.78;;;13.64;100.00
52137;BME280;69622;49.570;10.986;2023-05-12T13:52:15;98327.28;;;13.53;100.00
52137;BME280;69622;49.570;10.986;2023-05-12T13:55:16;98330.31;;;13.48;100.00
52137;BME280;69622;49.570;10.986;2023-05-12T13:58:21;98326.97;;;13.36;100.00
52137;BME280;69622;49.570;10.986;2023-05-12T14:01:23;98322.06;;;13.53;100.00
52137;BME280;69622;49.570;10.986;2023-05-12T14:04:24;98326.91;;;13.67;100.00
52137;BME280;69622;49.570;10.986;2023-05-12T14:07:26;98326.75;;;13.59;100.00
52137;BME280;69622;49.570;10.986;2023-05-12T14:10:27;98325.81;;;13.60;100.00
52137;BME280;69622;49.570;10.986;2023-05-12T14:13:29;98327.31;;;13.72;100.00
52137;BME280;69622;49.570;10.986;2023-05-12T14:16:31;98328.28;;;13.71;100.00
52137;BME280;69622;49.570;10.986;2023-05-12T14:19:32;98328.03;;;13.84;100.00
52137;BME280;69622;49.570;10.986;2023-05-12T14:22:35;98324.16;;;13.68;100.00
52137;BME280;69622;49.570;10.986;2023-05-12T14:25:37;98323.75;;;13.73;100.00
52137;BME280;69622;49.570;10.986;2023-05-12T14:28:38;98325.13;;;13.58;100.00
52137;BME280;69622;49.570;10.986;2023-05-12T14:31:40;98325.75;;;13.50;100.00
52137;BME280;69622;49.570;10.986;2023-05-12T14:34:41;98321.00;;;13.65;100.00
52137;BME280;69622;49.570;10.986;2023-05-12T14:37:42;98331.59;;;13.73;100.00
52137;BME280;69622;49.570;10.986;2023-05-12T14:40:45;98336.00;;;13.82;100.00
52137;BME280;69622;49.570;10.986;2023-05-12T14:43:49;98333.38;;;13.72;100.00
52137;BME280;69622;49.570;10.986;2023-05-12T14:46:50;98334.47;;;13.70;100.00
52137;BME280;69622;49.570;10.986;2023-05-12T14:49:52;98336.56;;;13.86;100.00
52137;BME280;69622;49.570;10.986;2023-05-12T14:52:53;98344.56;;;13.94;100.00
52137;BME280;69622;49.570;10.986;2023-05-12T14:55:55;98339.59;;;14.10;100.00
52137;BME280;69622;49.570;10.986;2023-05-12T14:58:56;98337.00;;;13.91;100.00
52137;BME280;69622;49.570;10.986;2023-05-12T15:01:57;98330.41;;;14.06;100.00
52137;BME280;69622;49.570;10.986;2023-05-12T15:04:59;98336.00;;;14.01;100.00
52137;BME280;69622;49.570;10.986;2023-05-12T15:08:00;98336.69;;;14.03;100.00
52137;BME280;69622;49.570;10.986;2023-05-12T15:11:02;98345.22;;;13.86;100.00
52137;BME280;69622;49.570;10.986;2023-05-12T15:14:03;98333.69;;;13.98;100.00
52137;BME280;69622;49.570;10.986;2023-05-12T15:17:05;98335.88;;;14.03;100.00
52137;BME280;69622;49.570;10.986;2023-05-12T15:20:07;98331.91;;;13.89;100.00
52137;BME280;69622;49.570;10.986;2023-05-12T15:23:09;98334.38;;;14.10;100.00
52137;BME280;69622;49.570;10.986;2023-05-12T15:26:11;98341.66;;;13.97;100.00
52137;BME280;69622;49.570;10.986;2023-05-12T15:29:31;98335.34;;;13.90;100.00
52137;BME280;69622;49.570;10.986;2023-05-12T15:32:33;98347.03;;;14.15;100.00
52137;BME280;69622;49.570;10.986;2023-05-12T15:35:34;98336.97;;;14.00;100.00
52137;BME280;69622;49.570;10.986;2023-05-12T15:38:36;98344.84;;;14.10;100.00
52137;BME280;69622;49.570;10.986;2023-05-12T15:41:38;98343.88;;;14.30;100.00